createdAt,value
2023-03-16T00:02:36.630Z,2.92
2023-03-16T00:07:39.266Z,2.20
2023-03-16T00:12:43.985Z,3.03
2023-03-16T00:17:48.766Z,2.58
2023-03-16T00:22:51.511Z,3.47
2023-03-16T00:27:54.052Z,3.70
2023-03-16T00:32:56.692Z,6.30
2023-03-16T00:37:59.268Z,7.15
2023-03-16T00:43:02.032Z,6.63
2023-03-16T00:48:04.718Z,6.50
2023-03-16T00:53:07.225Z,5.22
2023-03-16T00:58:09.930Z,6.78
2023-03-16T01:03:12.747Z,7.85
2023-03-16T01:08:17.880Z,4.93
2023-03-16T01:13:22.111Z,7.43
2023-03-16T01:18:25.433Z,7.47
2023-03-16T01:23:31.650Z,4.30
2023-03-16T01:28:35.286Z,4.13
2023-03-16T01:33:38.664Z,3.72
2023-03-16T01:38:45.133Z,1.80
2023-03-16T01:43:48.549Z,1.98
2023-03-16T01:49:02.660Z,2.40
2023-03-16T01:54:30.234Z,1.77
2023-03-16T01:59:39.456Z,3.38
2023-03-16T02:05:10.096Z,3.10
2023-03-16T02:10:14.800Z,2.17
2023-03-16T02:15:17.457Z,3.17
2023-03-16T02:20:23.454Z,1.73
2023-03-16T02:26:10.043Z,3.05
2023-03-16T02:31:13.158Z,2.03
2023-03-16T02:36:18.290Z,1.67
2023-03-16T02:41:22.489Z,1.80
2023-03-16T02:46:35.998Z,2.97
2023-03-16T02:51:39.097Z,3.35
2023-03-16T02:56:42.321Z,4.07
2023-03-16T03:01:46.819Z,3.85
2023-03-16T03:06:49.630Z,2.50
2023-03-16T03:11:52.328Z,3.83
2023-03-16T03:16:57.017Z,1.90
2023-03-16T03:22:00.099Z,2.25
2023-03-16T03:27:06.355Z,2.67
2023-03-16T03:32:13.130Z,2.05
2023-03-16T03:37:15.734Z,3.58
2023-03-16T03:42:19.093Z,4.13
2023-03-16T03:47:21.826Z,4.13
2023-03-16T03:52:24.406Z,4.40
2023-03-16T03:57:27.055Z,2.53
2023-03-16T04:02:30.041Z,2.40
2023-03-16T04:07:33.224Z,5.13
2023-03-16T04:12:39.417Z,3.42
2023-03-16T04:17:44.213Z,4.15
2023-03-16T04:22:47.989Z,4.47
2023-03-16T04:27:51.721Z,4.25
2023-03-16T04:32:55.073Z,4.35
2023-03-16T04:37:59.000Z,4.38
2023-03-16T04:43:11.982Z,5.80
2023-03-16T04:48:14.800Z,5.13
2023-03-16T04:53:17.611Z,5.28
2023-03-16T04:58:22.951Z,7.45
2023-03-16T05:03:26.990Z,6.63
2023-03-16T05:08:29.617Z,7.00
2023-03-16T05:13:32.173Z,8.05
2023-03-16T05:18:35.690Z,8.07
2023-03-16T05:23:38.371Z,6.22
2023-03-16T05:28:42.791Z,8.98
2023-03-16T05:33:48.615Z,7.47
2023-03-16T05:38:54.718Z,8.30
2023-03-16T05:44:09.166Z,11.23
2023-03-16T05:49:39.865Z,10.40
2023-03-16T05:54:48.500Z,10.82
2023-03-16T05:59:51.661Z,11.80
2023-03-16T06:04:55.967Z,14.80
2023-03-16T06:09:59.686Z,12.73
2023-03-16T06:15:03.714Z,9.60
2023-03-16T06:20:11.549Z,14.02
2023-03-16T06:25:15.951Z,7.68
2023-03-16T06:30:23.742Z,12.68
2023-03-16T06:35:27.301Z,11.68
2023-03-16T06:40:53.072Z,13.57
2023-03-16T06:45:56.955Z,11.50
2023-03-16T06:50:59.821Z,12.15
2023-03-16T06:56:06.424Z,12.30
2023-03-16T07:01:14.934Z,12.85
2023-03-16T07:06:18.400Z,11.32
2023-03-16T07:11:21.178Z,12.35
2023-03-16T07:16:23.742Z,11.18
2023-03-16T07:21:27.000Z,10.25
2023-03-16T07:26:29.834Z,11.20
2023-03-16T07:31:35.540Z,12.45
2023-03-16T07:36:43.248Z,12.43
2023-03-16T07:41:49.381Z,10.90
2023-03-16T07:47:12.829Z,9.45
2023-03-16T07:52:20.402Z,11.50
2023-03-16T07:57:24.095Z,10.93
2023-03-16T08:02:27.784Z,12.52
2023-03-16T08:07:32.163Z,10.32
2023-03-16T08:12:45.484Z,10.15
2023-03-16T08:17:48.813Z,9.95
2023-03-16T08:22:58.541Z,10.88
2023-03-16T08:28:05.029Z,8.93
2023-03-16T08:33:07.978Z,10.90
2023-03-16T08:38:12.647Z,9.18
2023-03-16T08:43:17.997Z,10.57
2023-03-16T08:48:24.209Z,9.27
2023-03-16T08:53:28.641Z,11.80
2023-03-16T08:58:42.010Z,9.00
2023-03-16T09:03:58.819Z,11.40
2023-03-16T09:09:02.147Z,10.43
2023-03-16T09:14:07.750Z,10.77
2023-03-16T09:19:12.004Z,10.55
2023-03-16T09:24:14.704Z,9.75
2023-03-16T09:29:19.081Z,8.43
2023-03-16T09:34:21.536Z,10.20
2023-03-16T09:39:24.368Z,9.65
2023-03-16T09:44:46.005Z,10.88
2023-03-16T09:49:51.600Z,10.30
2023-03-16T09:55:12.557Z,10.55
2023-03-16T10:00:25.910Z,9.20
2023-03-16T10:05:28.755Z,9.85
2023-03-16T10:11:00.913Z,8.50
2023-03-16T10:16:11.467Z,10.77
2023-03-16T10:21:17.224Z,10.35
2023-03-16T10:26:34.725Z,10.00
2023-03-16T10:31:38.628Z,8.95
2023-03-16T10:36:45.416Z,8.98
2023-03-16T10:41:57.375Z,8.18
2023-03-16T10:47:03.601Z,8.60
2023-03-16T10:52:40.318Z,8.60
2023-03-16T10:57:51.463Z,10.18
2023-03-16T11:02:56.150Z,9.05
2023-03-16T11:08:15.225Z,8.20
2023-03-16T11:13:21.532Z,9.80
2023-03-16T11:18:39.383Z,7.63
2023-03-16T11:23:50.174Z,8.32
2023-03-16T11:29:02.489Z,8.40
2023-03-16T11:34:14.839Z,8.80
2023-03-16T11:39:40.670Z,7.35
2023-03-16T11:44:53.635Z,8.68
2023-03-16T11:50:11.667Z,7.72
2023-03-16T11:55:44.727Z,8.20
2023-03-16T12:01:12.657Z,8.80
2023-03-16T12:06:33.797Z,8.95
2023-03-16T12:11:44.474Z,8.20
2023-03-16T12:17:01.100Z,9.98
2023-03-16T12:22:16.530Z,9.45
2023-03-16T12:27:51.840Z,10.68
2023-03-16T12:33:28.093Z,9.98
2023-03-16T12:38:35.641Z,10.57
2023-03-16T12:43:55.975Z,9.23
2023-03-16T12:49:02.532Z,11.10
2023-03-16T12:54:08.040Z,12.30
2023-03-16T12:59:40.501Z,10.48
2023-03-16T13:04:46.002Z,9.25
2023-03-16T13:10:17.712Z,8.95
2023-03-16T13:15:22.387Z,9.30
2023-03-16T13:25:43.776Z,9.52
2023-03-16T13:30:49.523Z,15.27
2023-03-16T13:35:54.675Z,11.60
2023-03-16T13:41:11.660Z,8.80
2023-03-16T13:51:26.051Z,7.13
2023-03-16T13:56:45.790Z,8.32
2023-03-16T14:02:15.263Z,9.70
2023-03-16T14:07:25.182Z,8.80
2023-03-16T14:12:34.082Z,9.60
2023-03-16T14:17:47.530Z,9.65
2023-03-16T14:22:59.017Z,8.57
2023-03-16T14:28:08.406Z,9.60
2023-03-16T14:33:36.811Z,7.95
2023-03-16T14:38:43.428Z,6.65
2023-03-16T14:43:57.069Z,9.15
2023-03-16T14:49:05.636Z,7.70
2023-03-16T14:54:17.685Z,6.90
2023-03-16T14:59:22.384Z,6.95
2023-03-16T15:04:33.889Z,6.18
2023-03-16T15:09:44.170Z,6.50
2023-03-16T15:15:26.675Z,8.02
2023-03-16T15:20:34.992Z,7.03
2023-03-16T15:26:00.982Z,6.45
2023-03-16T15:31:05.116Z,7.88
2023-03-16T15:36:18.847Z,7.80
2023-03-16T15:41:23.794Z,7.95
2023-03-16T15:46:31.694Z,8.63
2023-03-16T15:51:35.761Z,8.68
2023-03-16T15:56:53.205Z,7.78
2023-03-16T16:01:58.208Z,6.40
2023-03-16T16:07:03.476Z,7.03
2023-03-16T16:17:16.146Z,12.63
2023-03-16T16:22:19.400Z,13.38
2023-03-16T16:27:22.264Z,15.77
2023-03-16T16:32:25.274Z,15.40
2023-03-16T16:37:28.098Z,10.93
2023-03-16T16:42:31.856Z,11.77
2023-03-16T16:52:38.466Z,14.25
2023-03-16T16:57:42.052Z,12.48
2023-03-16T17:02:57.717Z,10.50
2023-03-16T17:08:04.357Z,9.93
2023-03-16T17:13:18.348Z,6.07
2023-03-16T17:18:22.282Z,5.47
2023-03-16T17:23:27.604Z,5.85
2023-03-16T17:28:36.305Z,2.53
2023-03-16T17:33:41.565Z,3.20
2023-03-16T17:38:44.688Z,3.60
2023-03-16T17:43:48.238Z,3.58
2023-03-16T17:48:53.639Z,2.30
2023-03-16T17:53:56.981Z,3.22
2023-03-16T17:59:03.726Z,3.63
2023-03-16T18:04:32.734Z,4.22
2023-03-16T18:09:36.824Z,3.67
2023-03-16T18:14:41.539Z,5.50
2023-03-16T18:24:48.776Z,4.97
2023-03-16T18:29:51.378Z,5.05
2023-03-16T18:34:54.717Z,4.80
2023-03-16T18:39:58.077Z,5.72
2023-03-16T18:45:00.969Z,6.03
2023-03-16T18:50:04.614Z,5.47
2023-03-16T18:55:16.484Z,6.50
2023-03-16T19:00:22.201Z,6.68
2023-03-16T19:05:35.937Z,7.18
2023-03-16T19:10:47.258Z,6.72
2023-03-16T19:15:51.331Z,6.78
2023-03-16T19:20:56.793Z,8.07
2023-03-16T19:26:01.040Z,9.10
2023-03-16T19:31:22.843Z,6.70
2023-03-16T19:36:28.277Z,7.10
2023-03-16T19:41:33.697Z,6.18
2023-03-16T19:46:36.363Z,7.88
2023-03-16T19:51:38.919Z,10.48
2023-03-16T19:56:41.470Z,9.32
2023-03-16T20:01:44.156Z,8.70
2023-03-16T20:06:49.353Z,10.30
2023-03-16T20:11:52.436Z,11.85
2023-03-16T20:16:55.242Z,11.20
2023-03-16T20:21:57.873Z,13.93
2023-03-16T20:27:00.554Z,15.55
2023-03-16T20:32:07.086Z,12.43
2023-03-16T20:37:27.377Z,17.75
2023-03-16T20:42:32.722Z,15.40
2023-03-16T20:47:35.290Z,15.35
2023-03-16T20:52:38.909Z,16.27
2023-03-16T20:57:43.673Z,20.55
2023-03-16T21:02:47.520Z,22.23
2023-03-16T21:07:51.019Z,25.70
2023-03-16T21:12:56.368Z,28.23
2023-03-16T21:18:07.090Z,31.02
2023-03-16T21:23:19.267Z,26.65
2023-03-16T21:28:23.499Z,31.88
2023-03-16T21:33:38.059Z,30.27
2023-03-16T21:38:40.713Z,40.22
2023-03-16T21:43:44.045Z,25.88
2023-03-16T21:48:49.904Z,36.70
2023-03-16T21:53:53.748Z,40.13
2023-03-16T21:58:56.567Z,33.97
2023-03-16T22:04:04.792Z,34.83
2023-03-16T22:09:07.697Z,32.08
2023-03-16T22:14:10.264Z,36.80
2023-03-16T22:19:14.872Z,38.55
2023-03-16T22:24:21.186Z,41.85
2023-03-16T22:29:26.753Z,39.50
2023-03-16T22:34:37.617Z,38.28
2023-03-16T22:39:40.695Z,49.72
2023-03-16T22:44:43.245Z,45.28
2023-03-16T22:49:45.805Z,43.83
2023-03-16T22:54:48.406Z,41.42
2023-03-16T22:59:52.238Z,42.45
2023-03-16T23:04:56.255Z,44.85
2023-03-16T23:09:58.939Z,41.85
2023-03-16T23:15:01.493Z,39.00
2023-03-16T23:20:18.756Z,39.22
2023-03-16T23:25:23.096Z,43.33
2023-03-16T23:30:26.349Z,45.78
2023-03-16T23:35:31.315Z,46.05
2023-03-16T23:45:45.428Z,47.80
2023-03-16T23:50:54.649Z,48.92
2023-03-16T23:55:57.700Z,45.03
